Hillpoint, Wisconsin
Current Conditions -  °F | °C
As of 3:56 AM on Sunday 26 Oct 2014 (Local Time) from KLNR Reporting Station
Clear Clear  
Wind Chill: 33°   Ceiling: Unl
Heat Index: 38°   Visibility: 10mi
Dew Point: 31°   Wind: 6mph
Humidity: 76%   Direction: 280°W
Pressure: 30.04"   Gusts: NA
Location:  43.39°N, 90.14°W
Report Text: KLNR 260856Z AUTO 28005KT 10SM CLR 03/M01 A3004 RMK AO2 SLP167 T00331006 51003
Loading
Personal Weather Stations






























Interactive Weather Map
Tropical Storm Tracking
New forecast layout! Learn more

10-Day Weather Forecast

Advertisements
Track Severe Weather on mobile